x

Montauk Point -23 Nm Ssw Of Montauk Point, Ny (44017) Wave Buoy

1:50am - Wed 23rd Apr 2014 All times are EDT. -4 hours from GMT.

  • Sig Wave height 3.3ft
  • Swell Direction
  • Peak Period 8s
  • Average Period 6s
  • Wind
    7mph
  • Sea Temp 43°f
  • Air Temp 46°f
  • Sea Pressure 998.4mb
  • Montauk Point -23 Nm Ssw Of Montauk Point, Ny
  • Montauk Point -23 Nm Ssw Of Montauk Point, Ny

More Historic Weather Station data

Upgrade to MSW Pro to gain access to the past 30 days of data for over 8000 Wavebouys and Weather Stations around the globe.

Join Pro

Comparision Forecast

View Surf forecast
   
Wed 04/23 1:50am 3.5ft 8s 6s 7
mph
998.4mb 43f 46f
12:50am 3ft 9s 5s 11 13 mph 998.9mb 43f 46f
Tue 04/22 11:50pm 3.5ft 9s 6s 9 11 mph 998.9mb 43f 46f
10:50pm 3.5ft 8s 6s 9 11 mph 999.7mb 44f 46f
9:50pm 3.5ft 8s 6s 9
mph
1000.6mb 44f 46f
8:50pm 3.5ft 8s 6s 9 11 mph 1000.3mb 44f 47f
7:50pm 3.5ft 8s 6s 9 11 mph 1000.7mb 44f 47f
5:50pm 3.5ft 8s 6s 13
mph
1001mb 44f 48f
4:50pm 3.5ft 8s 6s 11 13 mph 1001.7mb 44f 47f
3:50pm 3.5ft 8s 6s 11 13 mph 1002.2mb 44f 47f
2:50pm 3.5ft 9s 7s 11 13 mph 1003.1mb 44f 47f
1:50pm 3.5ft 8s 7s 11
mph
1004.2mb 44f 47f
12:50pm 4ft 8s 7s 11 13 mph 1004.6mb 44f 46f
11:50am 3.5ft 8s 7s 9 11 mph 1005.6mb 44f 46f
10:50am 3.5ft 9s 7s 9
mph
1006.3mb 44f 46f
9:50am 3.5ft 8s 7s 7
mph
1006.9mb 44f 45f
8:50am 4ft 9s 7s 7 9 mph 1007.5mb 43f 46f
7:50am 4ft 9s 7s 7
mph
1008mb 44f 45f
6:50am 3.5ft 9s 7s 7
mph
1008.4mb 44f 45f
5:50am 3.5ft 9s 7s 7
mph
1008.6mb 43f 45f
4:50am 4.5ft 9s 7s 7
mph
1008.9mb 43f 45f
3:50am 4ft 9s 7s 7
mph
1009.3mb 43f 45f
2:50am 4.5ft 8s 7s 4 7 mph 1010.1mb 43f 45f
1:50am 3.5ft 8s 7s 4
mph
1010.8mb 43f 45f
12:50am 3.5ft 8s 7s 4 7 mph 1011.6mb 43f 45f
Mon 04/21 11:50pm 3.5ft 9s 7s 7
mph
1012.2mb 43f 45f
10:50pm 3.5ft 9s 6s 7
mph
1012.7mb 44f 45f
9:50pm 3.5ft 8s 6s 7
mph
1013.3mb 44f 45f
8:50pm 3ft 10s 6s 7 9 mph 1013.8mb 44f 45f
7:50pm 3.5ft 9s 6s 7
mph
1014.3mb 44f 45f
6:50pm 3.5ft 8s 6s 4 7 mph 1014.7mb 44f 45f
5:50pm 3.5ft 8s 6s 4 7 mph 1015.3mb 45f 45f
4:50pm 3.5ft 9s 6s 4 7 mph 1015.8mb 45f 44f
3:50pm 3.5ft 8s 6s 4 7 mph 1016.8mb 45f 44f
2:50pm 3.5ft 9s 6s 7
mph
1017.9mb 44f 43f
1:50pm 3.5ft 10s 6s 4 7 mph 1018.9mb 44f 43f
12:50pm 3.5ft 9s 6s 7 9 mph 1019.7mb 43f 42f
11:50am 3.5ft 9s 6s 9 11 mph 1020.9mb 43f 42f
10:50am 3.5ft 9s 6s 11
mph
1021.7mb 43f 42f
9:50am 3.5ft 8s 6s 9
mph
1022mb 43f 42f
8:50am 3.5ft 10s 6s 7 9 mph 1022.7mb 42f 42f
7:50am 3.5ft 9s 6s 7 9 mph 1022.9mb 42f 42f
6:50am 3.5ft 9s 5s 7 9 mph 1022.8mb 42f 42f
5:50am 3.5ft 8s 5s 7
mph
1023.1mb 42f 42f
4:50am 3.5ft 9s 5s 9 11 mph 1023.3mb 42f 42f
3:50am 3.5ft 8s 5s 11 13 mph 1023.8mb 43f 42f
2:50am 3.5ft 7s 5s 13 16 mph 1024.2mb 43f 41f
1:50am 3.5ft 8s 5s 13 16 mph 1025.1mb 43f 41f
12:50am 3.5ft 8s 5s 11 13 mph 1026mb 43f 41f
Sun 04/20 11:50pm 3.5ft 8s 5s 11 13 mph 1026.7mb 43f 41f
10:50pm 3.5ft 9s 5s 11 13 mph 1028mb 43f 42f
9:50pm 3.5ft 9s 5s 13 16 mph 1028.4mb 43f 42f
8:50pm 3.5ft 8s 5s 11 13 mph 1029mb 43f 42f
7:50pm 3.5ft 8s 5s 9 11 mph 1029.5mb 43f 42f
6:50pm 3ft 9s 5s 9
mph
1030mb 43f 43f
5:50pm 3ft 8s 5s 7 9 mph 1030.5mb 43f 43f
4:50pm 3.5ft 9s 6s 7 9 mph 1030.9mb 43f 43f
3:50pm 3ft 9s 5s 9
mph
1031.2mb 43f 43f
2:50pm 3ft 8s 6s 9
mph
1031.4mb 43f 43f
1:50pm 3.5ft 9s 6s 11 13 mph 1031.9mb 42f 43f
12:50pm 3ft 9s 5s 11 13 mph 1032.4mb 42f 43f
11:50am 3.5ft 8s 5s 13 16 mph 1032.3mb 42f 43f
10:50am 3ft 8s 5s 13 16 mph 1032.3mb 42f 43f
9:50am 3ft 8s 5s 11 13 mph 1032.2mb 42f 43f
8:50am 3.5ft 9s 5s 11 13 mph 1031.9mb 42f 43f
7:50am 3ft 9s 5s 13 16 mph 1031.4mb 43f 43f
6:50am 3.5ft 9s 5s 13 16 mph 1031.4mb 42f 43f
5:50am 3.5ft 10s 6s 13 16 mph 1030.1mb 42f 43f
4:50am 3.5ft 9s 6s 11
mph
1029.8mb 43f 43f
3:50am 3.5ft 8s 5s 9 11 mph 1029.6mb 43f 44f
2:50am 3.5ft 9s 5s 16 18 mph 1028.9mb 43f 45f
1:50am 3.5ft 8s 6s 18 20 mph 1028.7mb 43f 46f
12:50am 3.5ft 9s 8s 13 16 mph 1028.1mb 43f 45f
Sat 04/19 11:50pm 3.5ft 9s 8s 9 11 mph 1027.4mb 43f 45f
10:50pm 3.5ft 9s 7s 11 13 mph 1026.6mb 43f 45f
9:50pm 3.5ft 9s 7s 2 7 mph 1026mb 43f 46f
8:50pm 3.5ft 9s 7s 4 7 mph 1025.2mb 43f 46f
7:50pm 3ft 9s 7s 4 7 mph 1024.3mb 44f 46f
6:50pm 3.5ft 10s 7s 9
mph
1023.7mb 44f 45f
5:50pm 3.5ft 10s 7s 9
mph
1023.5mb 44f 47f
4:50pm 3.5ft 10s 7s 9 11 mph 1023.3mb 44f 46f
3:50pm 3ft 9s 7s 9 11 mph 1023.1mb 43f 46f
2:50pm 3.5ft 10s 7s 13 16 mph 1023.1mb 43f 46f
1:50pm 3.5ft 10s 7s 11 13 mph 1023mb 43f 44f
12:50pm 4ft 10s 7s 11 13 mph 1023.5mb 43f 43f
11:50am 3.5ft 10s 6s 11 13 mph 1024.1mb 43f 43f
10:50am 4.5ft 10s 7s 11 16 mph 1024mb 42f 43f
9:50am 4.5ft 11s 7s 11 16 mph 1024.1mb 42f 42f
8:50am 4.5ft 10s 7s 11 16 mph 1023.8mb 42f 42f
7:50am 5ft 10s 7s 11 16 mph 1024mb 42f 42f